Time;durP1;ratioP1;P1;durP2;ratioP2;P2;SDS_P1;SDS_P2;PMS_P1;PMS_P2;Temp;Humidity;BMP_temperature;BMP_pressure;BME280_temperature;BME280_humidity;BME280_pressure;Samples;Min_cycle;Max_cycle;Signal;HPM_P1;HPM_P2
2021/12/30 00:01:50;;;;;;;1.60;1.10;;;;;;;13.41;100.00;97900.53;4848327;29;20625;-87
2021/12/30 00:04:18;;;;;;;1.50;0.93;;;;;;;13.39;100.00;97911.13;4833919;29;21053;-87
2021/12/30 00:06:53;;;;;;;1.80;1.10;;;;;;;13.43;100.00;97917.78;4863858;29;20675;-87
2021/12/30 00:09:21;;;;;;;1.97;1.00;;;;;;;13.41;100.00;97914.47;4857745;29;20652;-87
2021/12/30 00:11:50;;;;;;;1.40;1.00;;;;;;;13.44;100.00;97929.09;4848442;29;20630;-87
2021/12/30 00:14:38;;;;;;;1.80;1.13;;;;;;;13.44;100.00;97934.31;4855063;29;20645;-87
2021/12/30 00:17:06;;;;;;;3.03;1.20;;;;;;;13.43;100.00;97940.53;4850031;29;21060;-86
2021/12/30 00:19:35;;;;;;;1.90;1.27;;;;;;;13.41;100.00;97939.81;4857739;29;21010;-86
2021/12/30 00:22:05;;;;;;;1.90;1.10;;;;;;;13.43;100.00;97948.41;4859329;29;20742;-87
2021/12/30 00:24:33;;;;;;;3.47;1.30;;;;;;;13.43;100.00;97967.56;4841586;29;20668;-87
2021/12/30 00:27:01;;;;;;;1.93;1.20;;;;;;;13.43;100.00;97967.56;4859192;29;21268;-86
2021/12/30 00:29:29;;;;;;;1.80;1.20;;;;;;;13.44;100.00;97971.00;4842334;29;20748;-86
2021/12/30 00:31:57;;;;;;;3.67;1.40;;;;;;;13.42;100.00;97978.16;4856023;29;20724;-87
2021/12/30 00:34:26;;;;;;;1.83;1.30;;;;;;;13.41;100.00;97981.72;4855341;29;20666;-86
2021/12/30 00:36:54;;;;;;;2.13;1.20;;;;;;;13.43;100.00;97983.28;4863228;29;20740;-86
2021/12/30 00:39:23;;;;;;;1.70;1.37;;;;;;;13.43;100.00;97993.75;4867379;29;20639;-87
2021/12/30 00:41:52;;;;;;;1.93;1.30;;;;;;;13.43;100.00;97985.09;4843880;29;20632;-87
2021/12/30 00:44:20;;;;;;;2.50;1.30;;;;;;;13.41;100.00;97986.97;4853298;29;20682;-86
2021/12/30 00:46:50;;;;;;;2.13;1.23;;;;;;;13.44;100.00;97997.22;4846672;29;20650;-87
2021/12/30 00:49:18;;;;;;;3.00;1.50;;;;;;;13.45;100.00;97999.69;4853219;29;20648;-87
2021/12/30 00:51:46;;;;;;;1.97;1.20;;;;;;;13.45;100.00;98004.13;4851587;29;21133;-86
2021/12/30 00:54:15;;;;;;;2.07;1.30;;;;;;;13.46;100.00;98003.19;4832026;29;21198;-86
2021/12/30 00:56:45;;;;;;;2.10;1.30;;;;;;;13.48;100.00;97999.44;4851427;29;20625;-86
2021/12/30 00:59:15;;;;;;;3.03;1.33;;;;;;;13.52;100.00;98011.38;4852596;29;20617;-87
2021/12/30 01:01:43;;;;;;;2.30;1.47;;;;;;;13.53;100.00;98020.91;4856338;29;21045;-86
2021/12/30 01:04:12;;;;;;;2.57;1.27;;;;;;;13.52;100.00;98011.38;4845968;29;20662;-87
2021/12/30 01:06:40;;;;;;;2.30;1.43;;;;;;;13.54;100.00;98033.03;4847939;29;20690;-87
2021/12/30 01:09:09;;;;;;;2.63;1.40;;;;;;;13.55;100.00;98032.06;4858079;29;21489;-87
2021/12/30 01:11:37;;;;;;;2.00;1.30;;;;;;;13.56;100.00;98038.13;4855992;29;21003;-87
2021/12/30 01:14:15;;;;;;;3.20;1.33;;;;;;;13.57;100.00;98035.41;4869614;29;20665;-86
2021/12/30 01:16:47;;;;;;;3.10;1.47;;;;;;;13.55;100.00;98031.25;4833893;29;20642;-87
2021/12/30 01:19:23;;;;;;;2.33;1.40;;;;;;;13.53;100.00;98031.38;4853801;29;20635;-86
2021/12/30 01:21:54;;;;;;;3.00;1.43;;;;;;;13.54;100.00;98042.69;4851478;29;20624;-86
2021/12/30 01:24:23;;;;;;;3.13;1.63;;;;;;;13.51;100.00;98041.13;4852307;29;20658;-86
2021/12/30 01:26:51;;;;;;;3.90;1.40;;;;;;;13.50;100.00;98042.09;4849026;29;20645;-86
2021/12/30 01:29:21;;;;;;;3.20;1.40;;;;;;;13.49;100.00;98032.56;4849122;29;20661;-86
2021/12/30 01:31:49;;;;;;;3.97;1.70;;;;;;;13.50;100.00;98046.50;4854111;29;20637;-86
2021/12/30 01:34:21;;;;;;;3.83;1.70;;;;;;;13.45;100.00;98052.09;4833886;29;21184;-87
2021/12/30 01:36:50;;;;;;;2.90;1.30;;;;;;;13.44;100.00;98065.31;4850905;29;20655;-87
2021/12/30 01:39:20;;;;;;;3.50;1.47;;;;;;;13.40;100.00;98062.13;4852599;29;20728;-87
2021/12/30 01:41:49;;;;;;;4.57;1.27;;;;;;;13.36;100.00;98059.88;4853107;29;20740;-87
2021/12/30 01:44:22;;;;;;;3.17;1.40;;;;;;;13.38;100.00;98065.81;4861286;29;20679;-87
2021/12/30 01:46:50;;;;;;;2.63;1.50;;;;;;;13.34;100.00;98061.78;4853178;29;20641;-87
2021/12/30 01:49:19;;;;;;;4.70;1.50;;;;;;;13.32;100.00;98066.31;4854972;29;20660;-86
2021/12/30 01:51:49;;;;;;;2.90;1.30;;;;;;;13.30;100.00;98073.47;4869204;29;21198;-87
2021/12/30 01:54:17;;;;;;;8.00;3.20;;;;;;;13.30;100.00;98086.56;4839594;29;20749;-87
2021/12/30 01:56:46;;;;;;;2.70;1.47;;;;;;;13.28;100.00;98096.34;4832366;29;20635;-87
2021/12/30 01:59:14;;;;;;;2.70;1.17;;;;;;;13.27;100.00;98102.50;4828217;29;20648;-86
2021/12/30 02:01:46;;;;;;;3.13;1.47;;;;;;;13.26;100.00;98108.69;4847029;29;20682;-86
2021/12/30 02:04:15;;;;;;;2.40;1.13;;;;;;;13.29;100.00;98108.44;4845933;29;20648;-86
2021/12/30 02:06:43;;;;;;;2.63;1.20;;;;;;;13.29;100.00;98109.31;4842826;29;20662;-87
2021/12/30 02:09:12;;;;;;;2.43;1.43;;;;;;;13.31;100.00;98117.88;4856745;29;20655;-86
2021/12/30 02:11:40;;;;;;;3.73;1.50;;;;;;;13.33;100.00;98123.81;4863151;29;20646;-86
2021/12/30 02:14:08;;;;;;;4.27;1.40;;;;;;;13.35;100.00;98123.69;4848340;29;20635;-87
2021/12/30 02:16:37;;;;;;;3.27;1.30;;;;;;;13.38;100.00;98126.06;4854328;29;20661;-86
2021/12/30 02:19:07;;;;;;;3.33;1.27;;;;;;;13.36;100.00;98126.19;4855749;29;20675;-86
2021/12/30 02:21:36;;;;;;;1.77;1.10;;;;;;;13.36;100.00;98128.81;4851808;29;21189;-86
2021/12/30 02:24:05;;;;;;;4.60;1.43;;;;;;;13.41;100.00;98133.69;4854610;29;21031;-87
2021/12/30 02:26:34;;;;;;;3.67;1.30;;;;;;;13.41;100.00;98138.94;4853749;29;21235;-86
2021/12/30 02:29:02;;;;;;;2.10;1.23;;;;;;;13.42;100.00;98140.59;4835826;29;20649;-87
2021/12/30 02:31:31;;;;;;;3.30;1.37;;;;;;;13.38;100.00;98144.41;4856559;29;20627;-86
2021/12/30 02:34:00;;;;;;;3.00;1.53;;;;;;;13.38;100.00;98144.41;4853704;29;21223;-86
2021/12/30 02:36:31;;;;;;;2.50;1.57;;;;;;;13.34;100.00;98148.25;4839479;29;20639;-86
2021/12/30 02:39:02;;;;;;;2.23;1.00;;;;;;;13.35;100.00;98148.13;4850922;29;20643;-87
2021/12/30 02:41:34;;;;;;;3.93;1.50;;;;;;;13.35;100.00;98139.41;4850027;29;20634;-87
2021/12/30 02:44:04;;;;;;;1.87;1.17;;;;;;;13.36;100.00;98151.56;4842561;29;20646;-86
2021/12/30 02:46:34;;;;;;;2.17;1.47;;;;;;;13.33;100.00;98141.31;4846898;29;20757;-87
2021/12/30 02:49:02;;;;;;;3.17;1.37;;;;;;;13.31;100.00;98156.34;4852079;29;20649;-87
2021/12/30 02:51:31;;;;;;;3.30;1.60;;;;;;;13.32;100.00;98150.97;4848271;29;20662;-87
2021/12/30 02:54:01;;;;;;;2.90;1.40;;;;;;;13.35;100.00;98150.75;4849956;29;20638;-87
2021/12/30 02:56:30;;;;;;;3.97;1.70;;;;;;;13.30;100.00;98147.63;4847612;29;20625;-87
2021/12/30 02:58:58;;;;;;;3.60;1.50;;;;;;;13.29;100.00;98156.47;4832117;29;20641;-86
2021/12/30 03:01:28;;;;;;;5.10;1.40;;;;;;;13.33;100.00;98164.91;4853675;29;20638;-87
2021/12/30 03:03:57;;;;;;;2.03;1.17;;;;;;;13.30;100.00;98159.91;4862676;29;20666;-87
2021/12/30 03:06:26;;;;;;;2.10;1.10;;;;;;;13.25;100.00;98162.06;4847704;29;21070;-87
2021/12/30 03:08:54;;;;;;;3.30;1.50;;;;;;;13.25;100.00;98162.88;4858218;29;20629;-87
2021/12/30 03:11:25;;;;;;;2.17;1.30;;;;;;;13.19;100.00;98175.63;4860301;29;20646;-86
2021/12/30 03:13:54;;;;;;;2.30;1.60;;;;;;;13.15;100.00;98174.19;4860622;29;20642;-86
2021/12/30 03:16:26;;;;;;;5.53;1.40;;;;;;;13.15;100.00;98171.56;4839526;29;20642;-86
2021/12/30 03:18:54;;;;;;;3.77;1.43;;;;;;;13.15;100.00;98174.19;4843562;29;20696;-86
2021/12/30 03:21:24;;;;;;;2.80;1.50;;;;;;;13.16;100.00;98169.81;4849360;29;20633;-87
2021/12/30 03:23:53;;;;;;;2.90;1.27;;;;;;;13.13;100.00;98176.09;4849759;29;20610;-87
2021/12/30 03:26:21;;;;;;;3.17;1.60;;;;;;;13.12;100.00;98182.28;4855184;29;20658;-87
2021/12/30 03:28:51;;;;;;;2.80;1.50;;;;;;;13.13;100.00;98186.56;4854285;29;20621;-87
2021/12/30 03:31:21;;;;;;;4.90;1.63;;;;;;;13.12;100.00;98181.44;4854341;29;20634;-86
2021/12/30 03:33:50;;;;;;;4.07;1.40;;;;;;;13.09;100.00;98192.97;4849559;29;20630;-87
2021/12/30 03:36:20;;;;;;;2.90;1.57;;;;;;;13.11;100.00;98192.88;4849158;29;21214;-87
2021/12/30 03:38:51;;;;;;;2.90;1.37;;;;;;;13.13;100.00;98204.91;4849725;29;21176;-86
2021/12/30 03:41:21;;;;;;;4.53;1.30;;;;;;;13.14;100.00;98198.72;4866625;29;20636;-86
2021/12/30 03:43:51;;;;;;;2.33;1.30;;;;;;;13.13;100.00;98209.31;4853191;29;20642;-86
2021/12/30 03:46:19;;;;;;;3.20;1.37;;;;;;;13.12;100.00;98211.09;4851394;29;20658;-87
2021/12/30 03:48:47;;;;;;;2.43;1.20;;;;;;;13.15;100.00;98210.84;4848014;29;20650;-87
2021/12/30 03:51:23;;;;;;;3.77;1.60;;;;;;;13.19;100.00;98215.72;4856077;29;20646;-86
2021/12/30 03:53:54;;;;;;;3.47;1.50;;;;;;;13.21;100.00;98216.47;4848141;29;20680;-86
2021/12/30 03:56:24;;;;;;;3.40;1.53;;;;;;;13.21;100.00;98211.22;4857925;29;20636;-86
2021/12/30 03:58:54;;;;;;;3.50;2.53;;;;;;;13.24;100.00;98215.38;4855766;29;20636;-86
2021/12/30 04:01:25;;;;;;;2.93;1.20;;;;;;;13.25;100.00;98219.69;4859696;29;20670;-86
2021/12/30 04:03:54;;;;;;;6.30;1.47;;;;;;;13.26;100.00;98229.19;4841319;29;20630;-87
2021/12/30 04:06:22;;;;;;;4.07;1.67;;;;;;;13.27;100.00;98228.25;4854336;29;20686;-86
2021/12/30 04:08:51;;;;;;;3.60;1.37;;;;;;;13.28;100.00;98232.53;4846918;29;21485;-86
2021/12/30 04:11:19;;;;;;;3.70;1.70;;;;;;;13.30;100.00;98235.88;4848685;29;20629;-86
2021/12/30 04:13:47;;;;;;;2.30;1.40;;;;;;;13.35;100.00;98236.34;4855835;29;20650;-86
2021/12/30 04:16:16;;;;;;;3.57;1.67;;;;;;;13.35;100.00;98238.97;4857523;29;20621;-86
2021/12/30 04:18:45;;;;;;;3.57;1.57;;;;;;;13.35;100.00;98236.34;4850495;29;20665;-86
2021/12/30 04:21:14;;;;;;;4.57;1.30;;;;;;;13.32;100.00;98234.81;4870627;29;21223;-86
2021/12/30 04:23:42;;;;;;;2.77;1.37;;;;;;;13.38;100.00;98233.47;4863023;29;20694;-86
2021/12/30 04:26:10;;;;;;;2.00;1.20;;;;;;;13.41;100.00;98236.72;4852679;29;20666;-86
2021/12/30 04:28:38;;;;;;;3.37;1.37;;;;;;;13.36;100.00;98230.16;4837654;29;20659;-87
2021/12/30 04:31:06;;;;;;;4.47;1.40;;;;;;;13.31;100.00;98237.53;4854145;29;20637;-86
2021/12/30 04:33:36;;;;;;;2.90;2.00;;;;;;;13.29;100.00;98235.03;4851107;29;20634;-86
2021/12/30 04:36:05;;;;;;;5.40;1.67;;;;;;;13.34;100.00;98237.31;4853845;29;20634;-86
2021/12/30 04:38:33;;;;;;;2.83;1.37;;;;;;;13.41;100.00;98243.72;4871656;29;20625;-86
2021/12/30 04:41:02;;;;;;;2.10;1.37;;;;;;;13.45;100.00;98248.63;4858297;29;20642;-86
2021/12/30 04:43:30;;;;;;;2.50;1.40;;;;;;;13.53;100.00;98242.78;4858588;29;21014;-87
2021/12/30 04:45:59;;;;;;;2.77;1.50;;;;;;;13.53;100.00;98258.50;4858681;29;20660;-87
2021/12/30 04:48:29;;;;;;;3.30;1.40;;;;;;;13.53;100.00;98258.50;4862007;29;21180;-87
2021/12/30 04:50:58;;;;;;;3.30;1.53;;;;;;;13.50;100.00;98270.06;4848143;29;20649;-86
2021/12/30 04:53:26;;;;;;;3.13;1.47;;;;;;;13.49;100.00;98273.63;4841793;29;20639;-86
2021/12/30 04:55:54;;;;;;;4.43;1.80;;;;;;;13.47;100.00;98275.56;4849161;29;20641;-86
2021/12/30 04:58:23;;;;;;;2.70;1.50;;;;;;;13.50;100.00;98275.31;4849213;29;20635;-86
2021/12/30 05:00:51;;;;;;;2.37;1.80;;;;;;;13.50;100.00;98280.56;4850563;29;20625;-86
2021/12/30 05:03:21;;;;;;;3.20;1.93;;;;;;;13.50;100.00;98275.31;4868782;29;20645;-87
2021/12/30 05:05:51;;;;;;;3.37;2.13;;;;;;;13.53;100.00;98282.09;4840754;29;21256;-87
2021/12/30 05:08:23;;;;;;;3.33;1.90;;;;;;;13.54;100.00;98286.38;4856336;29;20992;-87
2021/12/30 05:10:52;;;;;;;3.93;1.80;;;;;;;13.55;100.00;98303.78;4851776;29;21186;-87
2021/12/30 05:13:21;;;;;;;3.37;2.13;;;;;;;13.55;100.00;98295.94;4848878;29;21001;-87
2021/12/30 05:15:49;;;;;;;5.37;2.40;;;;;;;13.54;100.00;98292.44;4854097;29;21248;-86
2021/12/30 05:18:19;;;;;;;8.07;2.50;;;;;;;13.54;100.00;98297.69;4854381;29;20725;-87
2021/12/30 05:20:47;;;;;;;3.60;1.93;;;;;;;13.55;100.00;98303.78;4855168;29;20745;-86
2021/12/30 05:23:15;;;;;;;4.10;1.97;;;;;;;13.56;100.00;98303.69;4852253;29;21015;-87
2021/12/30 05:25:44;;;;;;;5.03;2.37;;;;;;;13.56;100.00;98301.06;4863350;29;21103;-86
2021/12/30 05:28:13;;;;;;;5.90;1.87;;;;;;;13.56;100.00;98302.81;4855817;29;20661;-86
2021/12/30 05:30:41;;;;;;;3.40;1.70;;;;;;;13.56;100.00;98310.69;4856712;29;20643;-86
2021/12/30 05:33:09;;;;;;;3.60;2.27;;;;;;;13.56;100.00;98310.69;4826917;29;20711;-86
2021/12/30 05:35:38;;;;;;;3.40;1.50;;;;;;;13.56;100.00;98305.44;4846993;29;20625;-87
2021/12/30 05:38:06;;;;;;;2.47;1.47;;;;;;;13.57;100.00;98309.75;4849500;29;20731;-86
2021/12/30 05:40:35;;;;;;;4.10;1.80;;;;;;;13.55;100.00;98314.28;4829061;29;20639;-87
2021/12/30 05:43:04;;;;;;;3.00;1.90;;;;;;;13.53;100.00;98310.91;4863520;29;20709;-87
2021/12/30 05:45:32;;;;;;;3.33;1.80;;;;;;;13.51;100.00;98318.88;4836316;29;21402;-86
2021/12/30 05:48:01;;;;;;;3.20;1.70;;;;;;;13.53;100.00;98317.00;4850669;29;20719;-87
2021/12/30 05:50:31;;;;;;;2.53;1.60;;;;;;;13.52;100.00;98320.56;4849964;29;20624;-86
2021/12/30 05:52:59;;;;;;;2.87;1.80;;;;;;;13.54;100.00;98309.97;4838640;29;20644;-86
2021/12/30 05:55:28;;;;;;;4.60;1.50;;;;;;;13.53;100.00;98322.25;4847955;29;20624;-86
2021/12/30 05:57:57;;;;;;;3.13;1.53;;;;;;;13.54;100.00;98330.94;4848520;29;21011;-86
2021/12/30 06:00:29;;;;;;;1.90;1.47;;;;;;;13.52;100.00;98332.84;4856916;29;20645;-86
2021/12/30 06:02:58;;;;;;;5.30;1.70;;;;;;;13.52;100.00;98332.84;4836931;29;20649;-86
2021/12/30 06:05:27;;;;;;;3.00;1.40;;;;;;;13.48;100.00;98323.53;4848593;29;21447;-86
2021/12/30 06:07:55;;;;;;;2.90;1.40;;;;;;;13.50;100.00;98329.50;4855186;29;20665;-86
2021/12/30 06:10:23;;;;;;;4.13;1.50;;;;;;;13.50;100.00;98330.34;4839868;29;20635;-86
2021/12/30 06:12:51;;;;;;;1.80;1.30;;;;;;;13.50;100.00;98335.59;4872061;29;20643;-87
2021/12/30 06:15:19;;;;;;;3.63;1.70;;;;;;;13.49;100.00;98340.94;4853460;29;20654;-86
2021/12/30 06:17:49;;;;;;;3.33;1.80;;;;;;;13.45;100.00;98335.06;4840420;29;20684;-86
2021/12/30 06:20:17;;;;;;;2.93;1.90;;;;;;;13.43;100.00;98336.16;4850758;29;20638;-86
2021/12/30 06:22:46;;;;;;;2.10;1.47;;;;;;;13.44;100.00;98333.44;4852441;29;20980;-86
2021/12/30 06:25:14;;;;;;;3.80;1.83;;;;;;;13.46;100.00;98339.38;4840007;29;20638;-86
2021/12/30 06:27:42;;;;;;;5.00;1.77;;;;;;;13.46;100.00;98338.56;4850189;29;20662;-86
2021/12/30 06:30:11;;;;;;;4.47;2.33;;;;;;;13.45;100.00;98345.56;4850122;29;20661;-86
2021/12/30 06:32:39;;;;;;;3.20;1.70;;;;;;;13.43;100.00;98346.66;4849326;29;20984;-86
2021/12/30 06:35:10;;;;;;;3.03;1.23;;;;;;;13.45;100.00;98352.59;4846066;29;20638;-86
2021/12/30 06:37:39;;;;;;;6.47;2.00;;;;;;;13.47;100.00;98348.06;4858426;29;21159;-86
2021/12/30 06:40:08;;;;;;;2.53;1.50;;;;;;;13.47;100.00;98353.31;4855152;29;21206;-87
2021/12/30 06:42:36;;;;;;;3.10;1.70;;;;;;;13.47;100.00;98354.16;4842667;29;20623;-87
2021/12/30 06:45:05;;;;;;;3.43;1.77;;;;;;;13.49;100.00;98354.88;4855313;29;20675;-86
2021/12/30 06:47:34;;;;;;;1.67;1.03;;;;;;;13.47;100.00;98363.78;4856932;29;21235;-87
2021/12/30 06:50:02;;;;;;;1.60;1.10;;;;;;;13.44;100.00;98367.50;4873614;29;20626;-87
2021/12/30 06:52:32;;;;;;;3.83;1.03;;;;;;;13.39;100.00;98366.16;4859866;29;20647;-87
2021/12/30 06:55:00;;;;;;;1.40;0.77;;;;;;;13.35;100.00;98362.09;4844291;29;20644;-87
2021/12/30 06:57:29;;;;;;;1.80;0.93;;;;;;;13.33;100.00;98367.44;4853040;29;20637;-86
2021/12/30 06:59:57;;;;;;;2.20;0.97;;;;;;;13.30;100.00;98370.28;4860014;29;20633;-87
2021/12/30 07:02:25;;;;;;;1.80;1.00;;;;;;;13.35;100.00;98380.44;4850031;29;21070;-86
2021/12/30 07:04:54;;;;;;;2.07;0.97;;;;;;;13.38;100.00;98382.81;4866896;29;20645;-87
2021/12/30 07:07:22;;;;;;;1.77;0.97;;;;;;;13.37;100.00;98383.78;4864402;29;20688;-87
2021/12/30 07:09:51;;;;;;;1.90;1.13;;;;;;;13.38;100.00;98388.06;4859138;29;20684;-86
2021/12/30 07:12:19;;;;;;;1.67;1.00;;;;;;;13.43;100.00;98393.81;4855979;29;20629;-87
2021/12/30 07:14:48;;;;;;;2.33;1.20;;;;;;;13.43;100.00;98388.56;4851346;29;20640;-87
2021/12/30 07:17:16;;;;;;;1.50;1.00;;;;;;;13.45;100.00;98390.09;4868874;29;20629;-87
2021/12/30 07:19:44;;;;;;;2.20;1.20;;;;;;;13.46;100.00;98394.41;4863521;29;20717;-87
2021/12/30 07:22:12;;;;;;;2.30;1.50;;;;;;;13.44;100.00;98398.06;4868221;29;21020;-87
2021/12/30 07:25:01;;;;;;;1.60;1.00;;;;;;;13.45;100.00;98397.97;4854017;29;21048;-87
2021/12/30 07:27:30;;;;;;;3.63;1.20;;;;;;;13.47;100.00;98403.94;4848598;29;20703;-87
2021/12/30 07:29:59;;;;;;;1.63;1.17;;;;;;;13.50;100.00;98410.72;4848440;29;20652;-87
2021/12/30 07:32:27;;;;;;;3.60;1.70;;;;;;;13.50;100.00;98418.59;4837353;29;20643;-87
2021/12/30 07:34:55;;;;;;;2.40;1.50;;;;;;;13.53;100.00;98418.34;4844230;29;21175;-87
2021/12/30 07:37:23;;;;;;;2.30;1.37;;;;;;;13.54;100.00;98418.25;4844009;29;20650;-87
2021/12/30 07:39:51;;;;;;;2.83;1.00;;;;;;;13.55;100.00;98422.53;4849624;29;20674;-88
2021/12/30 07:42:21;;;;;;;8.10;5.43;;;;;;;13.55;100.00;98424.34;4841801;29;20662;-87
2021/12/30 07:44:49;;;;;;;2.17;1.03;;;;;;;13.55;100.00;98426.97;4853591;29;20631;-87
2021/12/30 07:47:19;;;;;;;2.23;1.57;;;;;;;13.56;100.00;98426.84;4859688;29;20641;-86
2021/12/30 07:49:47;;;;;;;2.23;1.50;;;;;;;13.59;100.00;98424.00;4836095;29;20736;-86
2021/12/30 07:52:16;;;;;;;3.90;1.40;;;;;;;13.60;100.00;98425.66;4853232;29;20642;-87
2021/12/30 07:54:44;;;;;;;2.37;1.33;;;;;;;13.59;100.00;98431.00;4851450;29;20642;-87
2021/12/30 07:57:12;;;;;;;1.87;1.17;;;;;;;13.60;100.00;98440.56;4852980;29;20644;-87
2021/12/30 07:59:42;;;;;;;2.17;1.10;;;;;;;13.62;100.00;98442.13;4858562;29;20672;-87
2021/12/30 08:02:10;;;;;;;1.60;0.97;;;;;;;13.63;100.00;98450.81;4851383;29;20658;-87
2021/12/30 08:04:38;;;;;;;1.63;1.00;;;;;;;13.65;100.00;98449.72;4840570;29;21028;-87
2021/12/30 08:07:06;;;;;;;1.80;1.17;;;;;;;13.68;100.00;98449.50;4850517;29;20657;-87
2021/12/30 08:09:34;;;;;;;1.67;1.20;;;;;;;13.70;100.00;98455.47;4852188;29;20668;-87
2021/12/30 08:12:03;;;;;;;3.80;2.30;;;;;;;13.68;100.00;98450.34;4857007;29;20644;-87
2021/12/30 08:14:31;;;;;;;14.80;7.50;;;;;;;13.66;100.00;98457.47;4855378;29;21009;-87
2021/12/30 08:17:00;;;;;;;6.73;4.53;;;;;;;13.67;100.00;98456.53;4857554;29;20730;-87
2021/12/30 08:19:33;;;;;;;12.17;6.47;;;;;;;13.69;100.00;98457.25;4862315;29;20641;-87
2021/12/30 08:22:02;;;;;;;5.17;3.10;;;;;;;13.72;100.00;98457.00;4849955;29;20652;-86
2021/12/30 08:24:30;;;;;;;4.80;2.53;;;;;;;13.73;100.00;98453.44;4853568;29;20997;-87
2021/12/30 08:27:12;;;;;;;8.03;4.93;;;;;;;13.75;100.00;98462.03;4845860;29;20730;-87
2021/12/30 08:29:41;;;;;;;6.97;4.50;;;;;;;13.74;100.00;98462.13;4845448;29;20667;-87
2021/12/30 08:32:11;;;;;;;4.00;2.70;;;;;;;13.76;100.00;98465.50;4869020;29;20651;-86
2021/12/30 08:34:40;;;;;;;2.77;2.00;;;;;;;13.75;100.00;98458.56;4849662;29;20668;-87
2021/12/30 08:37:08;;;;;;;2.00;1.53;;;;;;;13.73;100.00;98458.69;4848851;29;20645;-87
2021/12/30 08:39:36;;;;;;;3.93;2.30;;;;;;;13.78;100.00;98456.56;4832479;29;20652;-86
2021/12/30 08:42:06;;;;;;;2.27;1.27;;;;;;;13.81;100.00;98473.84;4854551;29;20642;-87
2021/12/30 08:44:34;;;;;;;2.40;1.70;;;;;;;13.81;100.00;98474.69;4843563;29;20710;-87
2021/12/30 08:47:03;;;;;;;1.80;1.30;;;;;;;13.83;100.00;98479.81;4852654;29;20630;-87
2021/12/30 08:49:32;;;;;;;7.30;1.70;;;;;;;13.83;100.00;98482.44;4862062;29;20680;-87
2021/12/30 08:52:01;;;;;;;3.00;1.70;;;;;;;13.82;100.00;98483.41;4854377;29;21001;-87
2021/12/30 08:54:31;;;;;;;2.40;1.80;;;;;;;13.85;100.00;98470.88;4834998;29;20634;-87
2021/12/30 08:56:59;;;;;;;5.07;1.60;;;;;;;13.89;100.00;98476.72;4852715;29;20643;-87
2021/12/30 08:59:28;;;;;;;2.37;1.47;;;;;;;13.91;100.00;98477.47;4839116;29;20642;-86
2021/12/30 09:01:57;;;;;;;2.70;1.67;;;;;;;13.93;100.00;98489.50;4857828;29;20671;-87
2021/12/30 09:04:26;;;;;;;1.90;1.50;;;;;;;13.94;100.00;98482.47;4842451;29;20639;-87
2021/12/30 09:06:56;;;;;;;4.10;2.40;;;;;;;13.95;100.00;98487.59;4844627;29;20673;-87
2021/12/30 09:09:27;;;;;;;2.87;1.80;;;;;;;13.95;100.00;98486.75;4854151;29;20706;-87
2021/12/30 09:11:55;;;;;;;2.07;1.50;;;;;;;13.98;100.00;98486.53;4846437;29;20669;-87
2021/12/30 09:14:24;;;;;;;2.53;1.60;;;;;;;13.97;100.00;98490.94;4850016;29;20669;-87
2021/12/30 09:16:52;;;;;;;3.00;1.70;;;;;;;13.96;100.00;98491.06;4860368;29;20645;-87
2021/12/30 09:19:20;;;;;;;2.80;1.80;;;;;;;13.95;100.00;98482.38;4852787;29;20618;-87
2021/12/30 09:21:50;;;;;;;2.03;1.40;;;;;;;13.93;100.00;98484.25;4832008;29;20697;-86
2021/12/30 09:24:20;;;;;;;3.27;1.33;;;;;;;13.93;100.00;98470.31;4849451;29;20729;-87
2021/12/30 09:26:48;;;;;;;2.30;1.53;;;;;;;13.95;100.00;98471.88;4864410;29;20652;-87
2021/12/30 09:29:16;;;;;;;2.43;1.50;;;;;;;14.04;100.00;98470.31;4862662;29;20652;-87
2021/12/30 09:31:46;;;;;;;2.20;1.33;;;;;;;14.13;100.00;98477.53;4850226;29;21185;-87
2021/12/30 09:34:15;;;;;;;2.60;1.80;;;;;;;14.19;100.00;98481.38;4849730;29;20660;-87
2021/12/30 09:36:43;;;;;;;3.70;2.47;;;;;;;14.18;100.00;98477.06;4856294;29;20626;-87
2021/12/30 09:39:13;;;;;;;3.37;2.87;;;;;;;14.22;100.00;98494.25;4854987;29;20633;-87
2021/12/30 09:41:44;;;;;;;3.50;2.80;;;;;;;14.27;100.00;98499.97;4844956;29;21212;-87
2021/12/30 09:44:15;;;;;;;4.60;3.03;;;;;;;14.30;100.00;98498.91;4838631;29;20639;-87
2021/12/30 09:46:44;;;;;;;5.67;3.13;;;;;;;14.31;100.00;98500.56;4856077;29;20635;-87
2021/12/30 09:49:17;;;;;;;5.00;4.30;;;;;;;14.36;100.00;98504.53;4856519;29;21251;-87
2021/12/30 09:51:46;;;;;;;5.57;4.20;;;;;;;14.38;100.00;98499.97;4842832;29;20642;-87
2021/12/30 09:54:14;;;;;;;6.30;3.00;;;;;;;14.42;100.00;98503.22;4853226;29;20628;-87
2021/12/30 09:56:45;;;;;;;4.40;3.37;;;;;;;14.49;100.00;98501.78;4848713;29;20644;-87
2021/12/30 09:59:14;;;;;;;4.77;3.83;;;;;;;14.55;100.00;98501.31;4863848;29;21183;-87
2021/12/30 10:01:43;;;;;;;3.63;2.60;;;;;;;14.59;100.00;98507.03;4833875;29;21187;-87
2021/12/30 10:04:12;;;;;;;3.33;2.43;;;;;;;14.65;100.00;98514.44;4836860;29;20737;-87
2021/12/30 10:06:45;;;;;;;2.70;2.10;;;;;;;14.71;100.00;98511.31;4852976;29;20675;-87
2021/12/30 10:09:15;;;;;;;3.63;2.20;;;;;;;14.77;100.00;98517.91;4849791;29;21033;-87
2021/12/30 10:11:47;;;;;;;4.73;2.13;;;;;;;14.79;100.00;98508.97;4849145;29;20630;-87
2021/12/30 10:14:27;;;;;;;5.17;2.30;;;;;;;14.80;100.00;98507.97;4847741;29;20637;-87
2021/12/30 10:17:15;;;;;;;2.83;2.17;;;;;;;14.80;100.00;98515.03;4848256;29;20637;-87
2021/12/30 10:19:44;;;;;;;3.37;2.97;;;;;;;14.80;100.00;98521.13;4843561;29;20740;-87
2021/12/30 10:22:13;;;;;;;2.83;2.40;;;;;;;14.82;100.00;98515.75;4849266;29;20644;-87
2021/12/30 10:24:42;;;;;;;3.80;2.90;;;;;;;14.84;100.00;98525.19;4847677;29;20655;-87
2021/12/30 10:27:23;;;;;;;3.23;2.73;;;;;;;14.90;100.00;98522.06;4837467;29;20632;-87
2021/12/30 10:29:52;;;;;;;4.80;2.30;;;;;;;14.95;100.00;98519.91;4850313;29;20668;-87
2021/12/30 10:32:22;;;;;;;3.03;2.47;;;;;;;14.99;100.00;98518.72;4858591;29;20729;-87
2021/12/30 10:35:08;;;;;;;3.20;2.33;;;;;;;15.05;100.00;98520.88;4826200;29;20672;-87
2021/12/30 10:37:38;;;;;;;2.57;1.87;;;;;;;15.08;100.00;98526.69;4844742;29;20643;-87
2021/12/30 10:40:08;;;;;;;2.23;1.80;;;;;;;15.10;100.00;98521.31;4841677;29;20620;-87
2021/12/30 10:42:38;;;;;;;2.77;2.17;;;;;;;15.16;100.00;98528.72;4855783;29;20631;-87
2021/12/30 10:45:07;;;;;;;3.97;2.50;;;;;;;15.18;100.00;98534.72;4856472;29;20678;-87
2021/12/30 10:47:51;;;;;;;5.10;3.40;;;;;;;15.20;100.00;98532.81;4854101;29;20663;-87
2021/12/30 10:50:22;;;;;;;12.37;9.13;;;;;;;15.21;100.00;98534.47;4853770;29;20697;-87
2021/12/30 10:52:56;;;;;;;10.20;7.93;;;;;;;15.21;100.00;98537.09;4860884;29;21175;-87
2021/12/30 10:55:25;;;;;;;3.83;2.60;;;;;;;15.21;100.00;98539.72;4847075;29;21226;-86
2021/12/30 10:57:56;;;;;;;4.57;2.80;;;;;;;15.22;100.00;98541.41;4868835;29;20650;-87
2021/12/30 11:00:25;;;;;;;3.03;2.40;;;;;;;15.26;100.00;98534.94;4849891;29;21065;-87
2021/12/30 11:02:53;;;;;;;4.70;3.67;;;;;;;15.31;100.00;98532.78;4852121;29;21216;-87
2021/12/30 11:05:22;;;;;;;7.47;6.10;;;;;;;15.40;100.00;98518.91;4847855;29;20638;-87
2021/12/30 11:07:51;;;;;;;3.70;3.10;;;;;;;15.50;100.00;98515.41;4853870;29;21193;-87
2021/12/30 11:10:30;;;;;;;5.33;3.90;;;;;;;15.56;100.00;98517.56;4834664;29;20679;-87
2021/12/30 11:13:11;;;;;;;5.00;4.30;;;;;;;15.58;100.00;98519.06;4856256;29;20629;-87
2021/12/30 11:15:40;;;;;;;7.70;6.00;;;;;;;15.60;100.00;98514.50;4855535;29;20744;-86
2021/12/30 11:18:10;;;;;;;6.10;4.70;;;;;;;15.67;100.00;98517.50;4853203;29;21272;-87
2021/12/30 11:20:39;;;;;;;4.13;3.50;;;;;;;15.66;100.00;98516.66;4844544;29;20686;-86
2021/12/30 11:23:07;;;;;;;8.87;6.70;;;;;;;15.60;100.00;98519.78;4848733;29;20639;-86
2021/12/30 11:25:35;;;;;;;5.43;4.17;;;;;;;15.59;100.00;98520.75;4850916;29;21154;-86
2021/12/30 11:28:03;;;;;;;5.40;4.17;;;;;;;15.56;100.00;98520.19;4848213;29;20635;-86
2021/12/30 11:30:33;;;;;;;4.50;3.67;;;;;;;15.54;100.00;98514.19;4853794;29;20721;-86
2021/12/30 11:33:02;;;;;;;4.50;3.10;;;;;;;15.55;100.00;98520.31;4850615;29;20632;-86
2021/12/30 11:35:31;;;;;;;4.10;3.10;;;;;;;15.55;100.00;98516.69;4850077;29;20633;-86